createdAt,value
2018-11-20T00:02:09.508Z,8.13
2018-11-20T00:05:13.268Z,8.20
2018-11-20T00:08:19.525Z,8.20
2018-11-20T00:11:13.498Z,7.93
2018-11-20T00:13:51.569Z,7.77
2018-11-20T00:16:30.907Z,8.13
2018-11-20T00:19:19.301Z,8.27
2018-11-20T00:22:06.398Z,8.80
2018-11-20T00:24:57.660Z,8.17
2018-11-20T00:27:52.159Z,8.37
2018-11-20T00:30:40.849Z,8.20
2018-11-20T00:33:37.565Z,8.43
2018-11-20T00:36:32.046Z,9.17
2018-11-20T00:39:20.462Z,8.63
2018-11-20T00:42:11.492Z,8.97
2018-11-20T00:45:14.995Z,9.07
2018-11-20T00:48:12.409Z,9.33
2018-11-20T00:51:09.992Z,8.90
2018-11-20T00:54:01.445Z,9.13
2018-11-20T00:56:42.492Z,10.23
2018-11-20T00:59:23.933Z,9.90
2018-11-20T01:02:12.908Z,9.83
2018-11-20T01:04:57.834Z,9.77
2018-11-20T01:07:45.407Z,9.70
2018-11-20T01:10:39.519Z,9.50
2018-11-20T01:13:26.506Z,9.67
2018-11-20T01:16:12.799Z,10.30
2018-11-20T01:19:04.178Z,10.50
2018-11-20T01:22:10.833Z,10.57
2018-11-20T01:25:03.698Z,11.47
2018-11-20T01:28:00.495Z,10.83
2018-11-20T01:30:47.583Z,10.93
2018-11-20T01:33:34.829Z,11.57
2018-11-20T01:36:13.193Z,10.70
2018-11-20T01:39:01.601Z,11.17
2018-11-20T01:41:52.814Z,11.63
2018-11-20T01:44:47.135Z,10.50
2018-11-20T01:47:33.873Z,11.07
2018-11-20T01:50:21.474Z,11.43
2018-11-20T01:53:28.949Z,12.10
2018-11-20T01:56:20.292Z,11.13
2018-11-20T01:59:00.860Z,11.83
2018-11-20T02:02:25.360Z,11.47
2018-11-20T02:05:05.375Z,11.93
2018-11-20T02:07:52.945Z,11.33
2018-11-20T02:10:40.586Z,11.23
2018-11-20T02:14:06.617Z,11.17
2018-11-20T02:17:32.641Z,11.33
2018-11-20T02:20:20.285Z,12.07
2018-11-20T02:23:08.172Z,12.30
2018-11-20T02:25:56.730Z,12.40
2018-11-20T02:28:44.427Z,12.17
2018-11-20T02:31:32.120Z,12.53
2018-11-20T02:34:20.743Z,12.87
2018-11-20T02:37:08.036Z,12.70
2018-11-20T02:39:57.207Z,13.33
2018-11-20T02:42:45.437Z,13.83
2018-11-20T02:45:33.420Z,14.07
2018-11-20T02:48:21.086Z,13.57
2018-11-20T02:51:04.346Z,14.73
2018-11-20T02:53:51.900Z,13.67
2018-11-20T02:56:39.548Z,14.33
2018-11-20T02:59:26.838Z,14.80
2018-11-20T03:02:14.575Z,14.23
2018-11-20T03:05:01.871Z,14.33
2018-11-20T03:07:50.272Z,14.07
2018-11-20T03:10:38.403Z,14.70
2018-11-20T03:13:26.019Z,15.07
2018-11-20T03:16:13.354Z,14.73
2018-11-20T03:19:00.682Z,15.43
2018-11-20T03:21:47.959Z,14.73
2018-11-20T03:24:36.188Z,15.17
2018-11-20T03:27:23.542Z,15.10
2018-11-20T03:30:49.584Z,14.90
2018-11-20T03:33:37.565Z,14.67
2018-11-20T03:36:24.871Z,14.33
2018-11-20T03:39:13.274Z,13.90
2018-11-20T03:42:00.633Z,13.57
2018-11-20T03:44:49.218Z,14.70
2018-11-20T03:47:37.672Z,14.00
2018-11-20T03:50:25.293Z,15.10
2018-11-20T03:53:32.809Z,15.17
2018-11-20T03:56:20.389Z,14.33
2018-11-20T03:59:08.377Z,14.50
2018-11-20T04:01:56.938Z,13.50
2018-11-20T04:04:44.815Z,14.50
2018-11-20T04:07:32.455Z,13.40
2018-11-20T04:10:20.600Z,13.97
2018-11-20T04:13:08.152Z,13.37
2018-11-20T04:15:56.816Z,13.97
2018-11-20T04:18:44.902Z,14.77
2018-11-20T04:21:32.533Z,14.67
2018-11-20T04:24:20.429Z,14.73
2018-11-20T04:26:59.912Z,15.10
2018-11-20T04:30:06.650Z,14.17
2018-11-20T04:32:44.547Z,13.87
2018-11-20T04:35:32.694Z,14.43
2018-11-20T04:38:20.818Z,14.17
2018-11-20T04:41:08.544Z,13.53
2018-11-20T04:43:56.376Z,14.37
2018-11-20T04:46:44.945Z,13.63
2018-11-20T04:49:32.565Z,13.87
2018-11-20T04:52:23.675Z,14.30
2018-11-20T04:55:11.295Z,13.63
2018-11-20T04:57:59.354Z,13.07
2018-11-20T05:00:47.485Z,13.50
2018-11-20T05:03:36.043Z,13.13
2018-11-20T05:06:23.387Z,13.00
2018-11-20T05:09:10.990Z,13.43
2018-11-20T05:11:59.536Z,13.67
2018-11-20T05:14:46.860Z,13.70
2018-11-20T05:17:34.798Z,13.27
2018-11-20T05:20:22.471Z,13.70
2018-11-20T05:23:10.662Z,14.13
2018-11-20T05:25:59.245Z,13.83
2018-11-20T05:28:47.428Z,13.60
2018-11-20T05:31:34.999Z,13.67
2018-11-20T05:34:22.598Z,13.33
2018-11-20T05:37:10.487Z,12.33
2018-11-20T05:39:58.155Z,13.90
2018-11-20T05:42:46.187Z,14.07
2018-11-20T05:45:53.193Z,13.33
2018-11-20T05:48:40.535Z,13.60
2018-11-20T05:51:28.660Z,13.83
2018-11-20T05:54:11.770Z,13.07
2018-11-20T05:56:53.149Z,13.93
2018-11-20T05:59:50.047Z,14.17
2018-11-20T06:02:36.691Z,13.40
2018-11-20T06:05:23.242Z,14.17
2018-11-20T06:08:09.977Z,14.70
2018-11-20T06:10:55.505Z,15.50
2018-11-20T06:13:40.083Z,14.93
2018-11-20T06:16:36.587Z,14.50
2018-11-20T06:19:27.043Z,13.97
2018-11-20T06:22:04.302Z,13.87
2018-11-20T06:24:51.274Z,13.97
2018-11-20T06:27:39.436Z,13.97
2018-11-20T06:30:45.695Z,15.43
2018-11-20T06:33:31.723Z,14.00
2018-11-20T06:36:25.091Z,14.57
2018-11-20T06:39:12.557Z,13.70
2018-11-20T06:41:54.362Z,14.77
2018-11-20T06:44:51.996Z,14.70
2018-11-20T06:47:39.053Z,14.33
2018-11-20T06:50:37.887Z,13.73
2018-11-20T06:53:25.626Z,14.10
2018-11-20T06:56:19.350Z,14.47
2018-11-20T06:59:07.025Z,14.27
2018-11-20T07:02:00.056Z,14.40
2018-11-20T07:04:46.428Z,14.47
2018-11-20T07:07:45.817Z,14.57
2018-11-20T07:10:31.582Z,15.63
2018-11-20T07:13:39.565Z,13.97
2018-11-20T07:16:55.914Z,14.00
2018-11-20T07:19:45.754Z,14.10
2018-11-20T07:22:40.479Z,14.43
2018-11-20T07:25:34.676Z,14.57
2018-11-20T07:28:37.118Z,14.80
2018-11-20T07:31:31.548Z,14.43
2018-11-20T07:34:31.310Z,14.17
2018-11-20T07:37:10.065Z,14.17
2018-11-20T07:40:09.725Z,14.60
2018-11-20T07:43:13.310Z,14.97
2018-11-20T07:46:13.933Z,16.13
2018-11-20T07:49:00.343Z,14.47
2018-11-20T07:51:47.556Z,13.87
2018-11-20T07:54:34.336Z,15.33
2018-11-20T07:57:22.557Z,15.33
2018-11-20T08:00:09.096Z,15.07
2018-11-20T08:02:56.998Z,14.37
2018-11-20T08:05:39.117Z,15.03
2018-11-20T08:08:26.856Z,14.67
2018-11-20T08:11:27.048Z,14.77
2018-11-20T08:14:11.320Z,15.60
2018-11-20T08:16:47.979Z,16.50
2018-11-20T08:19:41.358Z,14.40
2018-11-20T08:22:37.770Z,15.60
2018-11-20T08:25:24.026Z,15.40
2018-11-20T08:28:17.565Z,15.13
2018-11-20T08:31:09.094Z,14.90
2018-11-20T08:34:00.179Z,14.67
2018-11-20T08:36:56.975Z,14.97
2018-11-20T08:39:50.882Z,15.30
2018-11-20T08:42:37.399Z,14.47
2018-11-20T08:45:23.640Z,17.10
2018-11-20T08:48:17.559Z,16.37
2018-11-20T08:51:17.692Z,14.10
2018-11-20T08:54:03.944Z,14.33
2018-11-20T08:56:54.638Z,15.27
2018-11-20T08:59:45.490Z,15.00
2018-11-20T09:02:32.045Z,14.60
2018-11-20T09:05:19.902Z,14.77
2018-11-20T09:08:06.535Z,15.50
2018-11-20T09:10:54.245Z,14.93
2018-11-20T09:13:51.788Z,15.83
2018-11-20T09:16:38.135Z,15.53
2018-11-20T09:19:24.422Z,16.20
2018-11-20T09:22:03.527Z,14.60
2018-11-20T09:24:53.583Z,15.23
2018-11-20T09:27:46.643Z,15.07
2018-11-20T09:30:39.881Z,15.13
2018-11-20T09:33:42.499Z,15.00
2018-11-20T09:36:29.305Z,14.17
2018-11-20T09:39:20.321Z,15.83
2018-11-20T09:42:07.422Z,15.80
2018-11-20T09:45:18.041Z,15.73
2018-11-20T09:48:04.289Z,14.23
2018-11-20T09:50:51.189Z,15.07
2018-11-20T09:53:44.877Z,14.80
2018-11-20T09:56:27.393Z,16.27
2018-11-20T09:59:33.759Z,15.33
2018-11-20T10:02:24.237Z,15.67
2018-11-20T10:05:11.958Z,14.83
2018-11-20T10:07:49.733Z,15.00
2018-11-20T10:10:58.181Z,14.57
2018-11-20T10:13:52.003Z,14.57
2018-11-20T10:16:42.415Z,15.17
2018-11-20T10:19:29.293Z,15.67
2018-11-20T10:22:16.097Z,15.57
2018-11-20T10:24:56.294Z,15.27
2018-11-20T10:27:40.078Z,14.37
2018-11-20T10:30:26.639Z,15.03
2018-11-20T10:33:25.933Z,16.00
2018-11-20T10:36:11.938Z,15.33
2018-11-20T10:39:08.374Z,15.93
2018-11-20T10:41:55.301Z,15.70
2018-11-20T10:44:51.984Z,15.50
2018-11-20T10:47:38.292Z,14.53
2018-11-20T10:50:25.517Z,15.77
2018-11-20T10:53:22.964Z,15.83
2018-11-20T10:56:16.375Z,15.07
2018-11-20T10:59:10.729Z,15.47
2018-11-20T11:01:57.596Z,14.50
2018-11-20T11:04:43.969Z,15.27
2018-11-20T11:07:47.886Z,14.47
2018-11-20T11:10:36.251Z,14.83
2018-11-20T11:13:23.290Z,15.80
2018-11-20T11:16:14.752Z,15.07
2018-11-20T11:19:00.880Z,15.20
2018-11-20T11:21:54.640Z,15.70
2018-11-20T11:24:48.150Z,16.40
2018-11-20T11:27:34.407Z,15.13
2018-11-20T11:30:20.042Z,15.63
2018-11-20T11:33:10.475Z,14.40
2018-11-20T11:35:56.629Z,15.23
2018-11-20T11:38:42.432Z,14.10
2018-11-20T11:41:27.068Z,15.00
2018-11-20T11:44:14.222Z,15.20
2018-11-20T11:47:01.273Z,14.90
2018-11-20T11:49:49.038Z,15.40
2018-11-20T11:52:39.501Z,14.30
2018-11-20T11:55:27.846Z,14.90
2018-11-20T11:58:18.756Z,14.87
2018-11-20T12:01:03.312Z,14.27
2018-11-20T12:03:50.680Z,15.13
2018-11-20T12:06:38.505Z,13.90
2018-11-20T12:09:28.393Z,14.30
2018-11-20T12:12:16.008Z,13.90
2018-11-20T12:15:04.157Z,14.93
2018-11-20T12:17:47.447Z,14.73
2018-11-20T12:20:35.736Z,14.03
2018-11-20T12:23:42.710Z,14.53
2018-11-20T12:26:30.602Z,14.57
2018-11-20T12:29:18.218Z,14.00
2018-11-20T12:32:06.390Z,15.97
2018-11-20T12:34:54.401Z,13.93
2018-11-20T12:37:43.644Z,14.63
2018-11-20T12:40:28.707Z,14.73
2018-11-20T12:43:18.241Z,15.27
2018-11-20T12:49:06.899Z,14.73
2018-11-20T12:51:53.588Z,14.33
2018-11-20T12:54:41.975Z,14.83
2018-11-20T12:57:17.937Z,14.80
2018-11-20T13:00:05.547Z,15.77
2018-11-20T13:02:53.748Z,15.03
2018-11-20T13:05:42.343Z,14.50
2018-11-20T13:08:31.162Z,14.87
2018-11-20T13:11:17.609Z,15.37
2018-11-20T13:14:06.325Z,14.27
2018-11-20T13:17:13.668Z,15.10
2018-11-20T13:20:03.896Z,16.00
2018-11-20T13:23:08.798Z,15.17
2018-11-20T13:25:56.186Z,14.53
2018-11-20T13:28:44.398Z,16.80
2018-11-20T13:31:32.325Z,16.50
2018-11-20T13:34:20.984Z,16.47
2018-11-20T13:37:09.933Z,16.07
2018-11-20T13:40:15.623Z,16.00
2018-11-20T13:43:04.698Z,16.13
2018-11-20T13:45:43.764Z,16.53
2018-11-20T13:48:30.049Z,16.10
2018-11-20T13:51:36.808Z,16.87
2018-11-20T13:54:24.652Z,17.23
2018-11-20T13:57:12.619Z,16.40
2018-11-20T14:00:01.540Z,16.77
2018-11-20T14:02:49.004Z,16.57
2018-11-20T14:05:36.704Z,15.63
2018-11-20T14:08:31.903Z,17.50
2018-11-20T14:11:20.104Z,16.57
2018-11-20T14:14:07.978Z,16.93
2018-11-20T14:16:55.633Z,15.67
2018-11-20T14:19:43.423Z,16.53
2018-11-20T14:25:48.287Z,17.10
2018-11-20T14:28:36.340Z,16.03
2018-11-20T14:31:23.741Z,15.90
2018-11-20T14:34:11.307Z,15.37
2018-11-20T14:36:58.964Z,16.30
2018-11-20T14:40:06.052Z,17.60
2018-11-20T14:43:13.610Z,16.83
2018-11-20T14:46:01.783Z,16.07
2018-11-20T14:48:49.956Z,16.57
2018-11-20T14:51:27.733Z,15.37
2018-11-20T14:54:15.904Z,15.27
2018-11-20T14:57:03.516Z,14.63
2018-11-20T14:59:50.837Z,15.47
2018-11-20T15:02:38.462Z,14.00
2018-11-20T15:05:26.654Z,14.80
2018-11-20T15:08:13.944Z,14.97
2018-11-20T15:11:01.533Z,15.67
2018-11-20T15:13:49.141Z,15.37
2018-11-20T15:16:25.466Z,14.00
2018-11-20T15:19:13.569Z,14.00
2018-11-20T15:22:00.951Z,16.47
2018-11-20T15:24:38.758Z,13.97
2018-11-20T15:27:26.353Z,15.50
2018-11-20T15:30:14.262Z,14.77
2018-11-20T15:33:01.959Z,13.57
2018-11-20T15:35:49.282Z,13.50
2018-11-20T15:38:37.305Z,13.17
2018-11-20T15:41:25.448Z,12.83
2018-11-20T15:44:14.000Z,13.60
2018-11-20T15:47:02.222Z,13.17
2018-11-20T15:49:51.979Z,12.20
2018-11-20T15:52:39.398Z,12.37
2018-11-20T15:55:19.623Z,11.93
2018-11-20T15:58:06.954Z,12.60
2018-11-20T16:00:47.892Z,12.10
2018-11-20T16:03:35.237Z,11.73
2018-11-20T16:06:22.817Z,11.33
2018-11-20T16:09:10.604Z,12.33
2018-11-20T16:11:51.332Z,10.93
2018-11-20T16:14:39.051Z,10.10
2018-11-20T16:17:26.680Z,10.33
2018-11-20T16:20:14.675Z,11.07
2018-11-20T16:23:02.020Z,10.53
2018-11-20T16:25:49.780Z,10.87
2018-11-20T16:28:37.524Z,11.87
2018-11-20T16:31:24.860Z,10.73
2018-11-20T16:34:12.570Z,10.30
2018-11-20T16:37:00.176Z,11.07
2018-11-20T16:39:47.814Z,10.80
2018-11-20T16:42:36.490Z,11.50
2018-11-20T16:45:24.209Z,11.33
2018-11-20T16:48:12.100Z,11.10
2018-11-20T16:51:00.260Z,10.57
2018-11-20T16:53:49.218Z,10.37
2018-11-20T16:56:36.850Z,11.10
2018-11-20T16:59:24.889Z,11.10
2018-11-20T17:02:12.536Z,10.67
2018-11-20T17:05:00.501Z,10.27
2018-11-20T17:07:48.102Z,11.77
2018-11-20T17:10:35.527Z,10.73
2018-11-20T17:13:24.012Z,11.07
2018-11-20T17:16:11.996Z,12.07
2018-11-20T17:19:00.113Z,11.27
2018-11-20T17:21:47.472Z,11.57
2018-11-20T17:24:35.446Z,11.47
2018-11-20T17:27:22.770Z,10.73
2018-11-20T17:30:02.727Z,12.17
2018-11-20T17:32:50.078Z,12.00
2018-11-20T17:35:38.341Z,11.30
2018-11-20T17:38:25.813Z,11.50
2018-11-20T17:41:11.061Z,11.73
2018-11-20T17:43:58.671Z,11.90
2018-11-20T17:46:46.561Z,12.23
2018-11-20T17:49:34.970Z,11.33
2018-11-20T17:52:22.411Z,11.17
2018-11-20T17:55:10.268Z,12.23
2018-11-20T17:57:53.367Z,11.57
2018-11-20T18:00:37.478Z,11.57
2018-11-20T18:03:25.786Z,12.33
2018-11-20T18:06:13.470Z,12.23
2018-11-20T18:09:00.833Z,11.77
2018-11-20T18:11:48.194Z,11.87
2018-11-20T18:14:36.321Z,13.80
2018-11-20T18:17:24.077Z,12.87
2018-11-20T18:20:01.403Z,12.60
2018-11-20T18:22:49.707Z,12.17
2018-11-20T18:25:37.383Z,12.07
2018-11-20T18:28:24.687Z,12.10
2018-11-20T18:31:12.296Z,11.60
2018-11-20T18:34:01.283Z,12.60
2018-11-20T18:36:48.882Z,12.23
2018-11-20T18:39:29.895Z,13.10
2018-11-20T18:42:17.873Z,13.07
2018-11-20T18:45:06.435Z,12.23
2018-11-20T18:47:53.375Z,12.43
2018-11-20T18:50:41.559Z,12.40
2018-11-20T18:53:29.667Z,12.17
2018-11-20T18:56:17.016Z,13.10
2018-11-20T18:58:53.253Z,12.40
2018-11-20T19:01:40.806Z,12.33
2018-11-20T19:04:28.514Z,12.40
2018-11-20T19:07:14.704Z,12.33
2018-11-20T19:10:02.008Z,12.60
2018-11-20T19:12:49.827Z,12.00
2018-11-20T19:15:37.113Z,12.90
2018-11-20T19:18:24.498Z,12.67
2018-11-20T19:21:11.829Z,12.33
2018-11-20T19:23:56.705Z,12.53
2018-11-20T19:26:44.359Z,13.03
2018-11-20T19:29:32.397Z,12.37
2018-11-20T19:32:20.489Z,12.63
2018-11-20T19:35:08.805Z,13.43
2018-11-20T19:37:57.348Z,12.93
2018-11-20T19:40:44.643Z,12.93
2018-11-20T19:43:33.044Z,12.63
2018-11-20T19:46:20.764Z,12.40
2018-11-20T19:49:27.786Z,13.60
2018-11-20T19:52:15.281Z,13.60
2018-11-20T19:55:22.317Z,11.93
2018-11-20T19:58:09.646Z,11.77
2018-11-20T20:00:57.365Z,13.43
2018-11-20T20:03:44.958Z,13.23
2018-11-20T20:06:32.908Z,13.20
2018-11-20T20:09:21.348Z,12.33
2018-11-20T20:12:05.465Z,12.80
2018-11-20T20:14:53.654Z,13.23
2018-11-20T20:17:41.394Z,13.10
2018-11-20T20:20:32.341Z,13.60
2018-11-20T20:23:20.532Z,13.97
2018-11-20T20:26:09.331Z,13.23
2018-11-20T20:28:57.503Z,12.60
2018-11-20T20:31:45.160Z,13.87
2018-11-20T20:34:33.213Z,13.13
2018-11-20T20:37:20.458Z,13.03
2018-11-20T20:40:27.532Z,13.67
2018-11-20T20:43:15.437Z,14.63
2018-11-20T20:46:03.080Z,13.93
2018-11-20T20:48:51.550Z,13.63
2018-11-20T20:51:38.869Z,14.07
2018-11-20T20:54:27.027Z,13.03
2018-11-20T20:57:14.649Z,13.50
2018-11-20T21:00:02.676Z,13.73
2018-11-20T21:02:50.453Z,14.00
2018-11-20T21:05:39.120Z,12.67
2018-11-20T21:08:27.663Z,14.10
2018-11-20T21:11:15.557Z,14.23
2018-11-20T21:14:03.195Z,13.83
2018-11-20T21:16:50.527Z,14.33
2018-11-20T21:19:30.173Z,13.77
2018-11-20T21:22:17.880Z,15.53
2018-11-20T21:25:06.500Z,13.53
2018-11-20T21:28:12.366Z,13.93
2018-11-20T21:31:00.271Z,12.87
2018-11-20T21:33:48.035Z,14.07
2018-11-20T21:36:25.141Z,14.73
2018-11-20T21:39:13.286Z,15.60
2018-11-20T21:42:00.574Z,13.90
2018-11-20T21:44:46.228Z,12.93
2018-11-20T21:47:33.858Z,13.23
2018-11-20T21:50:22.069Z,12.90
2018-11-20T21:53:10.911Z,12.97
2018-11-20T21:55:58.602Z,13.50
2018-11-20T21:58:37.937Z,12.53
2018-11-20T22:01:27.529Z,13.47
2018-11-20T22:04:15.991Z,13.30
2018-11-20T22:07:22.708Z,12.80
2018-11-20T22:10:11.231Z,12.03
2018-11-20T22:12:59.141Z,14.17
2018-11-20T22:15:46.464Z,12.67
2018-11-20T22:18:34.019Z,12.70
2018-11-20T22:21:22.680Z,13.70
2018-11-20T22:24:11.777Z,13.10
2018-11-20T22:26:59.131Z,13.77
2018-11-20T22:29:46.420Z,12.60
2018-11-20T22:32:34.888Z,13.80
2018-11-20T22:35:22.179Z,12.03
2018-11-20T22:38:10.654Z,13.53
2018-11-20T22:40:58.734Z,13.17
2018-11-20T22:43:46.381Z,13.30
2018-11-20T22:46:34.117Z,12.67
2018-11-20T22:49:22.816Z,13.23
2018-11-20T22:52:10.933Z,13.47
2018-11-20T22:54:58.581Z,13.17
2018-11-20T22:57:47.230Z,12.87
2018-11-20T23:00:34.520Z,14.03
2018-11-20T23:03:22.290Z,13.00
2018-11-20T23:06:08.559Z,13.23
2018-11-20T23:08:37.250Z,13.93
2018-11-20T23:11:06.679Z,13.87
2018-11-20T23:13:35.701Z,12.90
2018-11-20T23:16:05.564Z,12.70
2018-11-20T23:18:34.711Z,13.07
2018-11-20T23:21:03.571Z,13.57
2018-11-20T23:23:32.099Z,13.43
2018-11-20T23:26:00.896Z,13.27
2018-11-20T23:28:30.568Z,14.17
2018-11-20T23:30:59.977Z,13.87
2018-11-20T23:33:29.063Z,13.73
2018-11-20T23:35:57.411Z,14.07
2018-11-20T23:38:26.506Z,14.40
2018-11-20T23:40:56.103Z,14.10
2018-11-20T23:43:25.479Z,14.43
2018-11-20T23:45:54.121Z,14.17
2018-11-20T23:48:23.403Z,14.63
2018-11-20T23:50:52.368Z,14.37
2018-11-20T23:53:22.349Z,15.50
2018-11-20T23:55:51.458Z,14.73
2018-11-20T23:58:20.616Z,14.87
